sensor_id;sensor_type;location;lat;lon;timestamp;P1;durP1;ratioP1;P2;durP2;ratioP2
1682;SDS011;13252;53.596;10.060;2023-01-30T00:01:02;52.87;;;32.77;;
1682;SDS011;13252;53.596;10.060;2023-01-30T00:03:31;47.10;;;34.40;;
1682;SDS011;13252;53.596;10.060;2023-01-30T00:06:00;61.43;;;37.27;;
1682;SDS011;13252;53.596;10.060;2023-01-30T00:08:28;56.63;;;35.80;;
1682;SDS011;13252;53.596;10.060;2023-01-30T00:10:56;52.37;;;36.03;;
1682;SDS011;13252;53.596;10.060;2023-01-30T00:13:23;55.90;;;37.07;;
1682;SDS011;13252;53.596;10.060;2023-01-30T00:15:51;56.23;;;37.60;;
1682;SDS011;13252;53.596;10.060;2023-01-30T00:18:19;51.33;;;34.17;;
1682;SDS011;13252;53.596;10.060;2023-01-30T00:20:46;51.97;;;36.17;;
1682;SDS011;13252;53.596;10.060;2023-01-30T00:23:15;53.20;;;34.87;;
1682;SDS011;13252;53.596;10.060;2023-01-30T00:25:45;52.77;;;35.03;;
1682;SDS011;13252;53.596;10.060;2023-01-30T00:28:13;61.33;;;38.00;;
1682;SDS011;13252;53.596;10.060;2023-01-30T00:30:40;56.03;;;35.63;;
1682;SDS011;13252;53.596;10.060;2023-01-30T00:33:08;57.73;;;39.20;;
1682;SDS011;13252;53.596;10.060;2023-01-30T00:35:36;56.60;;;37.23;;
1682;SDS011;13252;53.596;10.060;2023-01-30T00:38:04;58.30;;;37.83;;
1682;SDS011;13252;53.596;10.060;2023-01-30T00:40:33;57.93;;;36.13;;
1682;SDS011;13252;53.596;10.060;2023-01-30T00:43:01;56.63;;;37.00;;
1682;SDS011;13252;53.596;10.060;2023-01-30T00:45:46;46.97;;;30.40;;
1682;SDS011;13252;53.596;10.060;2023-01-30T00:48:32;59.33;;;36.70;;
1682;SDS011;13252;53.596;10.060;2023-01-30T00:51:00;53.43;;;33.40;;
1682;SDS011;13252;53.596;10.060;2023-01-30T00:53:28;50.80;;;35.93;;
1682;SDS011;13252;53.596;10.060;2023-01-30T00:55:57;47.87;;;32.07;;
1682;SDS011;13252;53.596;10.060;2023-01-30T00:58:25;48.33;;;31.50;;
1682;SDS011;13252;53.596;10.060;2023-01-30T01:00:53;58.40;;;34.80;;
1682;SDS011;13252;53.596;10.060;2023-01-30T01:03:22;44.17;;;30.27;;
1682;SDS011;13252;53.596;10.060;2023-01-30T01:05:49;53.83;;;34.00;;
1682;SDS011;13252;53.596;10.060;2023-01-30T01:08:17;51.03;;;34.80;;
1682;SDS011;13252;53.596;10.060;2023-01-30T01:10:45;48.70;;;30.67;;
1682;SDS011;13252;53.596;10.060;2023-01-30T01:13:14;45.07;;;30.10;;
1682;SDS011;13252;53.596;10.060;2023-01-30T01:15:42;53.97;;;36.23;;
1682;SDS011;13252;53.596;10.060;2023-01-30T01:18:10;48.60;;;26.93;;
1682;SDS011;13252;53.596;10.060;2023-01-30T01:20:37;57.83;;;31.30;;
1682;SDS011;13252;53.596;10.060;2023-01-30T01:23:05;50.93;;;30.27;;
1682;SDS011;13252;53.596;10.060;2023-01-30T01:25:33;46.60;;;30.80;;
1682;SDS011;13252;53.596;10.060;2023-01-30T01:28:00;53.13;;;34.53;;
1682;SDS011;13252;53.596;10.060;2023-01-30T01:30:30;48.63;;;35.07;;
1682;SDS011;13252;53.596;10.060;2023-01-30T01:32:58;48.60;;;31.00;;
1682;SDS011;13252;53.596;10.060;2023-01-30T01:35:26;50.47;;;31.43;;
1682;SDS011;13252;53.596;10.060;2023-01-30T01:37:54;44.37;;;30.43;;
1682;SDS011;13252;53.596;10.060;2023-01-30T01:40:22;40.63;;;29.40;;
1682;SDS011;13252;53.596;10.060;2023-01-30T01:43:13;57.27;;;30.37;;
1682;SDS011;13252;53.596;10.060;2023-01-30T01:45:45;41.93;;;28.80;;
1682;SDS011;13252;53.596;10.060;2023-01-30T01:48:14;40.47;;;29.20;;
1682;SDS011;13252;53.596;10.060;2023-01-30T01:50:46;49.53;;;30.77;;
1682;SDS011;13252;53.596;10.060;2023-01-30T01:53:16;45.83;;;29.67;;
1682;SDS011;13252;53.596;10.060;2023-01-30T01:55:47;47.63;;;30.73;;
1682;SDS011;13252;53.596;10.060;2023-01-30T01:58:17;45.60;;;30.30;;
1682;SDS011;13252;53.596;10.060;2023-01-30T02:00:51;45.13;;;30.30;;
1682;SDS011;13252;53.596;10.060;2023-01-30T02:03:20;37.60;;;29.27;;
1682;SDS011;13252;53.596;10.060;2023-01-30T02:05:49;46.77;;;30.47;;
1682;SDS011;13252;53.596;10.060;2023-01-30T02:08:19;42.77;;;28.70;;
1682;SDS011;13252;53.596;10.060;2023-01-30T02:10:50;37.60;;;22.63;;
1682;SDS011;13252;53.596;10.060;2023-01-30T02:13:20;53.37;;;30.17;;
1682;SDS011;13252;53.596;10.060;2023-01-30T02:15:49;37.93;;;26.83;;
1682;SDS011;13252;53.596;10.060;2023-01-30T02:18:18;37.57;;;27.80;;
1682;SDS011;13252;53.596;10.060;2023-01-30T02:20:51;41.30;;;28.77;;
1682;SDS011;13252;53.596;10.060;2023-01-30T02:26:46;35.73;;;25.73;;
1682;SDS011;13252;53.596;10.060;2023-01-30T02:29:34;49.07;;;28.60;;
1682;SDS011;13252;53.596;10.060;2023-01-30T02:32:31;42.67;;;28.53;;
1682;SDS011;13252;53.596;10.060;2023-01-30T02:35:03;42.10;;;28.33;;
1682;SDS011;13252;53.596;10.060;2023-01-30T02:37:38;47.83;;;27.57;;
1682;SDS011;13252;53.596;10.060;2023-01-30T02:40:15;39.27;;;27.27;;
1682;SDS011;13252;53.596;10.060;2023-01-30T02:42:50;34.80;;;26.47;;
1682;SDS011;13252;53.596;10.060;2023-01-30T02:45:27;36.50;;;25.33;;
1682;SDS011;13252;53.596;10.060;2023-01-30T02:48:01;37.07;;;25.10;;
1682;SDS011;13252;53.596;10.060;2023-01-30T02:50:31;41.97;;;24.43;;
1682;SDS011;13252;53.596;10.060;2023-01-30T02:53:01;38.00;;;24.53;;
1682;SDS011;13252;53.596;10.060;2023-01-30T02:55:31;37.93;;;27.30;;
1682;SDS011;13252;53.596;10.060;2023-01-30T02:57:59;33.90;;;23.57;;
1682;SDS011;13252;53.596;10.060;2023-01-30T03:00:29;33.80;;;24.20;;
1682;SDS011;13252;53.596;10.060;2023-01-30T03:06:05;36.37;;;24.77;;
1682;SDS011;13252;53.596;10.060;2023-01-30T03:08:45;31.10;;;22.97;;
1682;SDS011;13252;53.596;10.060;2023-01-30T03:11:18;28.97;;;21.53;;
1682;SDS011;13252;53.596;10.060;2023-01-30T03:13:51;34.90;;;22.33;;
1682;SDS011;13252;53.596;10.060;2023-01-30T03:16:23;27.87;;;20.83;;
1682;SDS011;13252;53.596;10.060;2023-01-30T03:18:54;33.67;;;23.77;;
1682;SDS011;13252;53.596;10.060;2023-01-30T03:21:22;36.23;;;22.20;;
1682;SDS011;13252;53.596;10.060;2023-01-30T03:23:51;36.70;;;23.40;;
1682;SDS011;13252;53.596;10.060;2023-01-30T03:26:19;31.70;;;18.83;;
1682;SDS011;13252;53.596;10.060;2023-01-30T03:28:50;30.77;;;20.50;;
1682;SDS011;13252;53.596;10.060;2023-01-30T03:31:19;27.17;;;18.53;;
1682;SDS011;13252;53.596;10.060;2023-01-30T03:33:47;25.20;;;18.43;;
1682;SDS011;13252;53.596;10.060;2023-01-30T03:36:16;30.20;;;20.07;;
1682;SDS011;13252;53.596;10.060;2023-01-30T03:38:44;34.80;;;17.73;;
1682;SDS011;13252;53.596;10.060;2023-01-30T03:41:12;23.67;;;18.90;;
1682;SDS011;13252;53.596;10.060;2023-01-30T03:43:40;23.23;;;17.27;;
1682;SDS011;13252;53.596;10.060;2023-01-30T03:46:07;23.33;;;17.40;;
1682;SDS011;13252;53.596;10.060;2023-01-30T03:48:37;24.37;;;17.57;;
1682;SDS011;13252;53.596;10.060;2023-01-30T03:51:05;22.23;;;16.63;;
1682;SDS011;13252;53.596;10.060;2023-01-30T03:53:34;25.83;;;17.70;;
1682;SDS011;13252;53.596;10.060;2023-01-30T03:56:03;20.33;;;15.00;;
1682;SDS011;13252;53.596;10.060;2023-01-30T03:58:33;21.07;;;16.03;;
1682;SDS011;13252;53.596;10.060;2023-01-30T04:01:13;24.20;;;16.07;;
1682;SDS011;13252;53.596;10.060;2023-01-30T04:03:41;20.77;;;15.60;;
1682;SDS011;13252;53.596;10.060;2023-01-30T04:06:09;17.67;;;14.00;;
1682;SDS011;13252;53.596;10.060;2023-01-30T04:08:38;16.83;;;14.10;;
1682;SDS011;13252;53.596;10.060;2023-01-30T04:11:08;20.33;;;15.03;;
1682;SDS011;13252;53.596;10.060;2023-01-30T04:13:35;20.70;;;14.30;;
1682;SDS011;13252;53.596;10.060;2023-01-30T04:16:13;20.53;;;15.37;;
1682;SDS011;13252;53.596;10.060;2023-01-30T04:19:01;24.20;;;13.87;;
1682;SDS011;13252;53.596;10.060;2023-01-30T04:21:31;15.43;;;10.67;;
1682;SDS011;13252;53.596;10.060;2023-01-30T04:24:00;22.33;;;11.20;;
1682;SDS011;13252;53.596;10.060;2023-01-30T04:26:28;14.27;;;6.97;;
1682;SDS011;13252;53.596;10.060;2023-01-30T04:28:56;10.80;;;6.00;;
1682;SDS011;13252;53.596;10.060;2023-01-30T04:31:26;12.47;;;6.50;;
1682;SDS011;13252;53.596;10.060;2023-01-30T04:34:04;8.27;;;5.57;;
1682;SDS011;13252;53.596;10.060;2023-01-30T04:36:33;8.53;;;5.10;;
1682;SDS011;13252;53.596;10.060;2023-01-30T04:39:03;6.47;;;3.60;;
1682;SDS011;13252;53.596;10.060;2023-01-30T04:41:32;8.43;;;4.03;;
1682;SDS011;13252;53.596;10.060;2023-01-30T04:44:00;13.43;;;4.03;;
1682;SDS011;13252;53.596;10.060;2023-01-30T04:46:44;12.17;;;3.50;;
1682;SDS011;13252;53.596;10.060;2023-01-30T04:49:12;7.70;;;3.20;;
1682;SDS011;13252;53.596;10.060;2023-01-30T04:51:41;8.20;;;3.57;;
1682;SDS011;13252;53.596;10.060;2023-01-30T04:54:10;5.80;;;3.43;;
1682;SDS011;13252;53.596;10.060;2023-01-30T04:56:39;6.90;;;3.27;;
1682;SDS011;13252;53.596;10.060;2023-01-30T04:59:07;7.73;;;3.40;;
1682;SDS011;13252;53.596;10.060;2023-01-30T05:01:40;11.37;;;3.70;;
1682;SDS011;13252;53.596;10.060;2023-01-30T05:04:08;7.10;;;3.40;;
1682;SDS011;13252;53.596;10.060;2023-01-30T05:06:36;10.10;;;4.73;;
1682;SDS011;13252;53.596;10.060;2023-01-30T05:09:04;10.07;;;6.10;;
1682;SDS011;13252;53.596;10.060;2023-01-30T05:11:33;5.77;;;3.60;;
1682;SDS011;13252;53.596;10.060;2023-01-30T05:14:01;11.83;;;5.70;;
1682;SDS011;13252;53.596;10.060;2023-01-30T05:16:29;14.57;;;4.80;;
1682;SDS011;13252;53.596;10.060;2023-01-30T05:18:57;13.57;;;5.17;;
1682;SDS011;13252;53.596;10.060;2023-01-30T05:21:25;11.80;;;5.30;;
1682;SDS011;13252;53.596;10.060;2023-01-30T05:23:54;12.50;;;6.17;;
1682;SDS011;13252;53.596;10.060;2023-01-30T05:26:22;9.30;;;3.97;;
1682;SDS011;13252;53.596;10.060;2023-01-30T05:28:52;5.87;;;3.20;;
1682;SDS011;13252;53.596;10.060;2023-01-30T05:31:20;12.17;;;3.30;;
1682;SDS011;13252;53.596;10.060;2023-01-30T05:33:49;16.33;;;3.60;;
1682;SDS011;13252;53.596;10.060;2023-01-30T05:36:18;9.50;;;3.40;;
1682;SDS011;13252;53.596;10.060;2023-01-30T05:38:48;10.23;;;2.60;;
1682;SDS011;13252;53.596;10.060;2023-01-30T05:41:15;19.93;;;3.10;;
1682;SDS011;13252;53.596;10.060;2023-01-30T05:43:47;11.67;;;3.20;;
1682;SDS011;13252;53.596;10.060;2023-01-30T05:46:16;17.97;;;3.13;;
1682;SDS011;13252;53.596;10.060;2023-01-30T05:48:44;18.67;;;2.93;;
1682;SDS011;13252;53.596;10.060;2023-01-30T05:51:16;9.43;;;3.50;;
1682;SDS011;13252;53.596;10.060;2023-01-30T05:53:44;12.13;;;3.00;;
1682;SDS011;13252;53.596;10.060;2023-01-30T05:56:13;10.27;;;2.40;;
1682;SDS011;13252;53.596;10.060;2023-01-30T05:58:41;10.20;;;2.97;;
1682;SDS011;13252;53.596;10.060;2023-01-30T06:01:10;15.63;;;3.00;;
1682;SDS011;13252;53.596;10.060;2023-01-30T06:03:39;12.53;;;2.03;;
1682;SDS011;13252;53.596;10.060;2023-01-30T06:06:08;12.90;;;2.00;;
1682;SDS011;13252;53.596;10.060;2023-01-30T06:08:37;29.07;;;4.23;;
1682;SDS011;13252;53.596;10.060;2023-01-30T06:11:05;18.87;;;2.87;;
1682;SDS011;13252;53.596;10.060;2023-01-30T06:13:34;15.93;;;3.00;;
1682;SDS011;13252;53.596;10.060;2023-01-30T06:16:01;19.33;;;2.93;;
1682;SDS011;13252;53.596;10.060;2023-01-30T06:18:29;24.53;;;3.90;;
1682;SDS011;13252;53.596;10.060;2023-01-30T06:20:58;16.03;;;3.47;;
1682;SDS011;13252;53.596;10.060;2023-01-30T06:23:26;20.37;;;2.47;;
1682;SDS011;13252;53.596;10.060;2023-01-30T06:25:54;13.93;;;2.77;;
1682;SDS011;13252;53.596;10.060;2023-01-30T06:28:22;20.60;;;2.60;;
1682;SDS011;13252;53.596;10.060;2023-01-30T06:30:51;16.70;;;2.70;;
1682;SDS011;13252;53.596;10.060;2023-01-30T06:33:19;18.60;;;3.00;;
1682;SDS011;13252;53.596;10.060;2023-01-30T06:35:47;17.63;;;2.93;;
1682;SDS011;13252;53.596;10.060;2023-01-30T06:38:17;25.50;;;3.60;;
1682;SDS011;13252;53.596;10.060;2023-01-30T06:40:46;12.60;;;3.07;;
1682;SDS011;13252;53.596;10.060;2023-01-30T06:43:15;15.47;;;3.40;;
1682;SDS011;13252;53.596;10.060;2023-01-30T06:45:43;14.80;;;3.00;;
1682;SDS011;13252;53.596;10.060;2023-01-30T06:48:11;15.90;;;4.00;;
1682;SDS011;13252;53.596;10.060;2023-01-30T06:50:39;9.00;;;1.97;;
1682;SDS011;13252;53.596;10.060;2023-01-30T06:53:07;19.73;;;3.43;;
1682;SDS011;13252;53.596;10.060;2023-01-30T06:55:37;17.20;;;2.60;;
1682;SDS011;13252;53.596;10.060;2023-01-30T06:58:05;12.40;;;2.67;;
1682;SDS011;13252;53.596;10.060;2023-01-30T07:00:34;15.93;;;3.00;;
1682;SDS011;13252;53.596;10.060;2023-01-30T07:03:04;8.43;;;2.23;;
1682;SDS011;13252;53.596;10.060;2023-01-30T07:05:32;20.47;;;3.50;;
1682;SDS011;13252;53.596;10.060;2023-01-30T07:08:02;17.67;;;2.60;;
1682;SDS011;13252;53.596;10.060;2023-01-30T07:10:29;14.97;;;3.17;;
1682;SDS011;13252;53.596;10.060;2023-01-30T07:12:59;16.40;;;2.90;;
1682;SDS011;13252;53.596;10.060;2023-01-30T07:15:27;20.27;;;3.13;;
1682;SDS011;13252;53.596;10.060;2023-01-30T07:17:55;16.40;;;3.03;;
1682;SDS011;13252;53.596;10.060;2023-01-30T07:20:23;14.87;;;2.70;;
1682;SDS011;13252;53.596;10.060;2023-01-30T07:22:51;20.93;;;4.20;;
1682;SDS011;13252;53.596;10.060;2023-01-30T07:25:20;15.83;;;4.33;;
1682;SDS011;13252;53.596;10.060;2023-01-30T07:27:50;23.07;;;3.80;;
1682;SDS011;13252;53.596;10.060;2023-01-30T07:30:19;23.77;;;4.20;;
1682;SDS011;13252;53.596;10.060;2023-01-30T07:32:48;31.17;;;4.87;;
1682;SDS011;13252;53.596;10.060;2023-01-30T07:35:18;23.80;;;4.03;;
1682;SDS011;13252;53.596;10.060;2023-01-30T07:37:47;24.50;;;4.93;;
1682;SDS011;13252;53.596;10.060;2023-01-30T07:40:15;18.20;;;4.93;;
1682;SDS011;13252;53.596;10.060;2023-01-30T07:42:43;24.03;;;5.20;;
1682;SDS011;13252;53.596;10.060;2023-01-30T07:45:11;41.23;;;7.67;;
1682;SDS011;13252;53.596;10.060;2023-01-30T07:47:40;24.80;;;4.43;;
1682;SDS011;13252;53.596;10.060;2023-01-30T07:50:08;29.50;;;6.40;;
1682;SDS011;13252;53.596;10.060;2023-01-30T07:52:37;21.27;;;4.30;;
1682;SDS011;13252;53.596;10.060;2023-01-30T07:55:05;26.17;;;3.93;;
1682;SDS011;13252;53.596;10.060;2023-01-30T07:57:33;30.10;;;5.63;;
1682;SDS011;13252;53.596;10.060;2023-01-30T08:00:01;29.60;;;6.27;;
1682;SDS011;13252;53.596;10.060;2023-01-30T08:02:34;50.03;;;6.03;;
1682;SDS011;13252;53.596;10.060;2023-01-30T08:05:03;33.93;;;6.40;;
1682;SDS011;13252;53.596;10.060;2023-01-30T08:07:32;25.57;;;6.60;;
1682;SDS011;13252;53.596;10.060;2023-01-30T08:10:00;30.67;;;5.57;;
1682;SDS011;13252;53.596;10.060;2023-01-30T08:12:28;33.47;;;6.87;;
1682;SDS011;13252;53.596;10.060;2023-01-30T08:14:55;31.97;;;6.20;;
1682;SDS011;13252;53.596;10.060;2023-01-30T08:17:23;30.97;;;6.13;;
1682;SDS011;13252;53.596;10.060;2023-01-30T08:19:51;50.50;;;6.20;;
1682;SDS011;13252;53.596;10.060;2023-01-30T08:22:20;49.27;;;5.97;;
1682;SDS011;13252;53.596;10.060;2023-01-30T08:24:47;23.30;;;5.47;;
1682;SDS011;13252;53.596;10.060;2023-01-30T08:27:15;41.10;;;5.93;;
1682;SDS011;13252;53.596;10.060;2023-01-30T08:29:44;39.93;;;7.50;;
1682;SDS011;13252;53.596;10.060;2023-01-30T08:32:11;20.27;;;5.07;;
1682;SDS011;13252;53.596;10.060;2023-01-30T08:34:41;39.97;;;6.63;;
1682;SDS011;13252;53.596;10.060;2023-01-30T08:37:08;30.40;;;5.97;;
1682;SDS011;13252;53.596;10.060;2023-01-30T08:39:38;23.60;;;5.03;;
1682;SDS011;13252;53.596;10.060;2023-01-30T08:42:06;37.60;;;6.57;;
1682;SDS011;13252;53.596;10.060;2023-01-30T08:44:34;29.63;;;5.63;;
1682;SDS011;13252;53.596;10.060;2023-01-30T08:47:01;38.80;;;6.73;;
1682;SDS011;13252;53.596;10.060;2023-01-30T08:49:29;23.93;;;5.63;;
1682;SDS011;13252;53.596;10.060;2023-01-30T08:51:57;25.17;;;5.70;;
1682;SDS011;13252;53.596;10.060;2023-01-30T08:54:25;30.40;;;4.57;;
1682;SDS011;13252;53.596;10.060;2023-01-30T08:56:54;24.53;;;5.50;;
1682;SDS011;13252;53.596;10.060;2023-01-30T08:59:21;36.27;;;5.83;;
1682;SDS011;13252;53.596;10.060;2023-01-30T09:01:49;42.17;;;6.57;;
1682;SDS011;13252;53.596;10.060;2023-01-30T09:04:17;43.30;;;6.77;;
1682;SDS011;13252;53.596;10.060;2023-01-30T09:06:44;33.40;;;5.27;;
1682;SDS011;13252;53.596;10.060;2023-01-30T09:09:13;42.30;;;7.30;;
1682;SDS011;13252;53.596;10.060;2023-01-30T09:11:40;43.50;;;5.80;;
1682;SDS011;13252;53.596;10.060;2023-01-30T09:14:10;32.33;;;6.03;;
1682;SDS011;13252;53.596;10.060;2023-01-30T09:16:38;30.33;;;6.00;;
1682;SDS011;13252;53.596;10.060;2023-01-30T09:19:06;35.90;;;6.07;;
1682;SDS011;13252;53.596;10.060;2023-01-30T09:21:33;26.40;;;5.80;;
1682;SDS011;13252;53.596;10.060;2023-01-30T09:24:01;22.93;;;5.70;;
1682;SDS011;13252;53.596;10.060;2023-01-30T09:26:29;24.00;;;4.47;;
1682;SDS011;13252;53.596;10.060;2023-01-30T09:28:57;30.33;;;4.33;;
1682;SDS011;13252;53.596;10.060;2023-01-30T09:31:26;30.90;;;4.63;;
1682;SDS011;13252;53.596;10.060;2023-01-30T09:33:54;23.87;;;4.73;;
1682;SDS011;13252;53.596;10.060;2023-01-30T09:36:22;32.93;;;5.33;;
1682;SDS011;13252;53.596;10.060;2023-01-30T09:38:49;23.40;;;4.70;;
1682;SDS011;13252;53.596;10.060;2023-01-30T09:47:19;23.73;;;5.30;;
1682;SDS011;13252;53.596;10.060;2023-01-30T09:49:51;25.17;;;5.30;;
1682;SDS011;13252;53.596;10.060;2023-01-30T09:52:26;24.83;;;5.80;;
1682;SDS011;13252;53.596;10.060;2023-01-30T09:54:58;27.10;;;5.90;;
1682;SDS011;13252;53.596;10.060;2023-01-30T09:57:27;18.87;;;6.07;;
1682;SDS011;13252;53.596;10.060;2023-01-30T09:59:56;27.03;;;4.73;;
1682;SDS011;13252;53.596;10.060;2023-01-30T10:02:40;29.00;;;6.17;;
1682;SDS011;13252;53.596;10.060;2023-01-30T10:05:12;23.93;;;4.80;;
1682;SDS011;13252;53.596;10.060;2023-01-30T10:07:47;28.60;;;4.70;;
1682;SDS011;13252;53.596;10.060;2023-01-30T10:10:32;27.53;;;5.10;;
1682;SDS011;13252;53.596;10.060;2023-01-30T10:13:07;14.80;;;3.33;;
1682;SDS011;13252;53.596;10.060;2023-01-30T10:15:47;26.63;;;4.10;;
1682;SDS011;13252;53.596;10.060;2023-01-30T10:18:25;27.73;;;5.63;;
1682;SDS011;13252;53.596;10.060;2023-01-30T10:21:03;32.50;;;4.23;;
1682;SDS011;13252;53.596;10.060;2023-01-30T10:23:45;20.07;;;4.10;;
1682;SDS011;13252;53.596;10.060;2023-01-30T10:26:19;19.17;;;3.33;;
1682;SDS011;13252;53.596;10.060;2023-01-30T10:28:52;12.67;;;2.83;;
1682;SDS011;13252;53.596;10.060;2023-01-30T10:31:33;13.67;;;3.00;;
1682;SDS011;13252;53.596;10.060;2023-01-30T10:34:06;10.70;;;2.27;;
1682;SDS011;13252;53.596;10.060;2023-01-30T10:36:38;7.43;;;1.87;;
1682;SDS011;13252;53.596;10.060;2023-01-30T10:39:10;8.63;;;1.97;;
1682;SDS011;13252;53.596;10.060;2023-01-30T10:41:50;11.30;;;2.73;;
1682;SDS011;13252;53.596;10.060;2023-01-30T10:44:21;5.30;;;1.80;;
1682;SDS011;13252;53.596;10.060;2023-01-30T10:46:53;9.40;;;2.40;;
1682;SDS011;13252;53.596;10.060;2023-01-30T10:49:30;12.57;;;1.93;;
1682;SDS011;13252;53.596;10.060;2023-01-30T10:52:09;17.50;;;3.37;;
1682;SDS011;13252;53.596;10.060;2023-01-30T10:54:46;23.40;;;3.87;;
1682;SDS011;13252;53.596;10.060;2023-01-30T10:57:23;16.50;;;2.93;;
1682;SDS011;13252;53.596;10.060;2023-01-30T10:59:59;37.70;;;5.13;;
1682;SDS011;13252;53.596;10.060;2023-01-30T11:02:33;20.00;;;3.87;;
1682;SDS011;13252;53.596;10.060;2023-01-30T11:05:11;15.80;;;2.73;;
1682;SDS011;13252;53.596;10.060;2023-01-30T11:07:41;24.10;;;3.90;;
1682;SDS011;13252;53.596;10.060;2023-01-30T11:10:13;10.97;;;1.87;;
1682;SDS011;13252;53.596;10.060;2023-01-30T11:12:42;10.00;;;1.63;;
1682;SDS011;13252;53.596;10.060;2023-01-30T11:15:10;3.70;;;1.10;;
1682;SDS011;13252;53.596;10.060;2023-01-30T11:17:38;6.53;;;0.93;;
1682;SDS011;13252;53.596;10.060;2023-01-30T11:20:12;6.63;;;1.20;;
1682;SDS011;13252;53.596;10.060;2023-01-30T11:22:45;3.83;;;0.70;;
1682;SDS011;13252;53.596;10.060;2023-01-30T11:25:16;3.87;;;0.97;;
1682;SDS011;13252;53.596;10.060;2023-01-30T11:27:50;9.33;;;1.63;;
1682;SDS011;13252;53.596;10.060;2023-01-30T11:30:19;6.60;;;1.23;;
1682;SDS011;13252;53.596;10.060;2023-01-30T11:32:48;7.37;;;1.83;;
1682;SDS011;13252;53.596;10.060;2023-01-30T11:35:25;4.80;;;0.97;;
1682;SDS011;13252;53.596;10.060;2023-01-30T11:37:57;7.53;;;2.17;;
1682;SDS011;13252;53.596;10.060;2023-01-30T11:40:38;14.90;;;2.00;;
1682;SDS011;13252;53.596;10.060;2023-01-30T11:43:10;4.97;;;0.93;;
1682;SDS011;13252;53.596;10.060;2023-01-30T11:45:39;13.13;;;2.07;;
1682;SDS011;13252;53.596;10.060;2023-01-30T11:48:11;16.93;;;1.97;;
1682;SDS011;13252;53.596;10.060;2023-01-30T11:51:00;9.00;;;1.70;;
1682;SDS011;13252;53.596;10.060;2023-01-30T11:53:32;20.23;;;3.33;;
1682;SDS011;13252;53.596;10.060;2023-01-30T11:56:03;4.80;;;1.40;;
1682;SDS011;13252;53.596;10.060;2023-01-30T11:58:37;12.43;;;2.30;;
1682;SDS011;13252;53.596;10.060;2023-01-30T12:01:06;9.37;;;1.97;;
1682;SDS011;13252;53.596;10.060;2023-01-30T12:03:38;6.87;;;1.77;;
1682;SDS011;13252;53.596;10.060;2023-01-30T12:06:14;23.43;;;2.40;;
1682;SDS011;13252;53.596;10.060;2023-01-30T12:08:50;14.10;;;2.40;;
1682;SDS011;13252;53.596;10.060;2023-01-30T12:11:24;13.30;;;2.70;;
1682;SDS011;13252;53.596;10.060;2023-01-30T12:13:54;16.10;;;2.70;;
1682;SDS011;13252;53.596;10.060;2023-01-30T12:16:23;14.47;;;2.40;;
1682;SDS011;13252;53.596;10.060;2023-01-30T12:18:54;22.17;;;4.43;;
1682;SDS011;13252;53.596;10.060;2023-01-30T12:21:30;24.30;;;3.90;;
1682;SDS011;13252;53.596;10.060;2023-01-30T12:24:04;16.73;;;2.67;;
1682;SDS011;13252;53.596;10.060;2023-01-30T12:26:39;22.47;;;4.07;;
1682;SDS011;13252;53.596;10.060;2023-01-30T12:29:15;14.60;;;3.47;;
1682;SDS011;13252;53.596;10.060;2023-01-30T12:32:01;18.67;;;2.90;;
1682;SDS011;13252;53.596;10.060;2023-01-30T12:34:32;12.57;;;2.23;;
1682;SDS011;13252;53.596;10.060;2023-01-30T12:37:03;16.17;;;2.00;;
1682;SDS011;13252;53.596;10.060;2023-01-30T12:39:41;8.57;;;1.50;;
1682;SDS011;13252;53.596;10.060;2023-01-30T12:42:19;3.90;;;1.50;;
1682;SDS011;13252;53.596;10.060;2023-01-30T12:44:58;7.53;;;2.00;;
1682;SDS011;13252;53.596;10.060;2023-01-30T12:47:33;6.30;;;2.03;;
1682;SDS011;13252;53.596;10.060;2023-01-30T12:50:19;15.33;;;2.13;;
1682;SDS011;13252;53.596;10.060;2023-01-30T12:52:57;6.23;;;1.93;;
1682;SDS011;13252;53.596;10.060;2023-01-30T12:55:33;16.60;;;2.73;;
1682;SDS011;13252;53.596;10.060;2023-01-30T12:58:05;9.07;;;2.13;;
1682;SDS011;13252;53.596;10.060;2023-01-30T13:00:47;10.63;;;2.13;;
1682;SDS011;13252;53.596;10.060;2023-01-30T13:03:22;17.13;;;2.80;;
1682;SDS011;13252;53.596;10.060;2023-01-30T13:05:55;17.87;;;3.17;;
1682;SDS011;13252;53.596;10.060;2023-01-30T13:08:34;26.97;;;3.70;;
1682;SDS011;13252;53.596;10.060;2023-01-30T13:11:09;25.13;;;5.67;;
1682;SDS011;13252;53.596;10.060;2023-01-30T13:13:44;30.50;;;4.60;;
1682;SDS011;13252;53.596;10.060;2023-01-30T13:16:17;21.57;;;4.53;;
1682;SDS011;13252;53.596;10.060;2023-01-30T13:18:51;31.17;;;5.90;;
1682;SDS011;13252;53.596;10.060;2023-01-30T13:21:22;22.90;;;5.20;;
1682;SDS011;13252;53.596;10.060;2023-01-30T13:23:58;28.57;;;4.20;;
1682;SDS011;13252;53.596;10.060;2023-01-30T13:26:31;37.43;;;5.40;;
1682;SDS011;13252;53.596;10.060;2023-01-30T13:29:01;41.70;;;5.40;;
1682;SDS011;13252;53.596;10.060;2023-01-30T13:31:34;20.70;;;3.50;;
1682;SDS011;13252;53.596;10.060;2023-01-30T13:34:05;30.07;;;4.67;;
1682;SDS011;13252;53.596;10.060;2023-01-30T13:36:36;33.40;;;5.13;;
1682;SDS011;13252;53.596;10.060;2023-01-30T13:39:10;25.57;;;5.77;;
1682;SDS011;13252;53.596;10.060;2023-01-30T13:41:41;30.50;;;4.27;;
1682;SDS011;13252;53.596;10.060;2023-01-30T13:44:14;37.67;;;5.70;;
1682;SDS011;13252;53.596;10.060;2023-01-30T13:46:45;34.00;;;6.40;;
1682;SDS011;13252;53.596;10.060;2023-01-30T13:49:15;17.23;;;3.40;;
1682;SDS011;13252;53.596;10.060;2023-01-30T13:51:46;17.67;;;3.17;;
1682;SDS011;13252;53.596;10.060;2023-01-30T13:54:20;20.13;;;3.67;;
1682;SDS011;13252;53.596;10.060;2023-01-30T13:56:55;16.73;;;2.90;;
1682;SDS011;13252;53.596;10.060;2023-01-30T13:59:29;23.13;;;4.80;;
1682;SDS011;13252;53.596;10.060;2023-01-30T14:02:17;25.77;;;4.10;;
1682;SDS011;13252;53.596;10.060;2023-01-30T14:04:47;22.30;;;3.90;;
1682;SDS011;13252;53.596;10.060;2023-01-30T14:07:17;29.00;;;4.40;;
1682;SDS011;13252;53.596;10.060;2023-01-30T14:09:50;25.87;;;3.77;;
1682;SDS011;13252;53.596;10.060;2023-01-30T14:12:31;24.13;;;5.23;;
1682;SDS011;13252;53.596;10.060;2023-01-30T14:15:01;34.23;;;4.90;;
1682;SDS011;13252;53.596;10.060;2023-01-30T14:17:30;35.27;;;5.37;;
1682;SDS011;13252;53.596;10.060;2023-01-30T14:19:59;13.20;;;3.90;;
1682;SDS011;13252;53.596;10.060;2023-01-30T14:22:34;32.00;;;5.43;;
1682;SDS011;13252;53.596;10.060;2023-01-30T14:34:37;33.53;;;4.30;;
1682;SDS011;13252;53.596;10.060;2023-01-30T14:37:26;26.43;;;4.40;;
1682;SDS011;13252;53.596;10.060;2023-01-30T14:49:25;34.03;;;5.20;;
1682;SDS011;13252;53.596;10.060;2023-01-30T14:51:54;19.37;;;4.37;;
1682;SDS011;13252;53.596;10.060;2023-01-30T14:54:24;35.63;;;5.40;;
1682;SDS011;13252;53.596;10.060;2023-01-30T14:57:19;18.50;;;3.50;;
1682;SDS011;13252;53.596;10.060;2023-01-30T14:59:52;29.27;;;5.67;;
1682;SDS011;13252;53.596;10.060;2023-01-30T15:02:41;23.27;;;4.87;;
1682;SDS011;13252;53.596;10.060;2023-01-30T15:05:13;23.40;;;4.97;;
1682;SDS011;13252;53.596;10.060;2023-01-30T15:07:43;25.47;;;6.30;;
1682;SDS011;13252;53.596;10.060;2023-01-30T15:10:16;29.60;;;4.53;;
1682;SDS011;13252;53.596;10.060;2023-01-30T15:12:53;30.17;;;4.00;;
1682;SDS011;13252;53.596;10.060;2023-01-30T15:15:38;16.80;;;3.17;;
1682;SDS011;13252;53.596;10.060;2023-01-30T15:18:11;38.57;;;4.97;;
1682;SDS011;13252;53.596;10.060;2023-01-30T15:21:07;27.13;;;3.57;;
1682;SDS011;13252;53.596;10.060;2023-01-30T15:23:56;38.63;;;5.60;;
1682;SDS011;13252;53.596;10.060;2023-01-30T15:26:34;30.23;;;3.73;;
1682;SDS011;13252;53.596;10.060;2023-01-30T15:29:16;22.40;;;4.80;;